Time;durP1;ratioP1;P1;durP2;ratioP2;P2;SDS_P1;SDS_P2;PMS_P1;PMS_P2;Temp;Humidity;BMP_temperature;BMP_pressure;BME280_temperature;BME280_humidity;BME280_pressure;Samples;Min_cycle;Max_cycle;Signal;HPM_P1;HPM_P2
2023/07/23 00:01:40;;;;;;;14.68;6.10;;;;;;;17.48;82.93;100813.16;5095871;28;20474;-60
2023/07/23 00:04:05;;;;;;;10.02;5.75;;;;;;;17.44;83.00;100808.78;5095860;28;20024;-60
2023/07/23 00:06:33;;;;;;;12.15;6.28;;;;;;;17.37;83.36;100808.91;5094995;28;20434;-60
2023/07/23 00:08:58;;;;;;;9.77;6.15;;;;;;;17.33;83.87;100802.75;5095639;28;20382;-60
2023/07/23 00:11:23;;;;;;;9.30;5.57;;;;;;;17.41;83.48;100805.28;5095546;28;20031;-60
2023/07/23 00:13:49;;;;;;;11.38;5.70;;;;;;;17.40;83.64;100799.06;5077324;28;20085;-60
2023/07/23 00:16:14;;;;;;;11.88;5.97;;;;;;;17.48;83.46;100790.91;5095494;28;20031;-60
2023/07/23 00:18:40;;;;;;;9.65;5.63;;;;;;;17.45;83.08;100793.63;5095581;28;20024;-60
2023/07/23 00:21:05;;;;;;;10.30;5.70;;;;;;;17.46;82.84;100787.38;5095278;28;20064;-60
2023/07/23 00:23:30;;;;;;;9.90;6.32;;;;;;;17.33;83.76;100786.72;5095288;28;20036;-60
2023/07/23 00:25:56;;;;;;;8.98;5.00;;;;;;;17.34;83.58;100785.78;5095562;28;20020;-60
2023/07/23 00:28:21;;;;;;;8.65;5.68;;;;;;;17.30;83.88;100775.19;5095219;28;20020;-60
2023/07/23 00:30:47;;;;;;;10.52;5.68;;;;;;;17.36;83.80;100772.44;5094926;28;20026;-60
2023/07/23 00:33:12;;;;;;;10.93;6.05;;;;;;;17.25;83.80;100767.28;5095138;28;20120;-60
2023/07/23 00:35:38;;;;;;;10.75;6.05;;;;;;;17.25;83.26;100764.59;5095078;28;20020;-59
2023/07/23 00:38:03;;;;;;;11.05;5.90;;;;;;;17.24;83.99;100754.84;5095068;28;20031;-60
2023/07/23 00:40:29;;;;;;;12.23;5.57;;;;;;;17.28;83.69;100757.41;5094998;28;20024;-60
2023/07/23 00:42:54;;;;;;;9.23;5.50;;;;;;;17.25;83.72;100746.78;5094912;28;20038;-60
2023/07/23 00:45:20;;;;;;;9.00;5.65;;;;;;;17.23;83.88;100745.06;5094737;28;20028;-60
2023/07/23 00:47:45;;;;;;;10.23;5.70;;;;;;;17.21;84.15;100742.41;5094718;28;20111;-60
2023/07/23 00:50:12;;;;;;;10.00;5.70;;;;;;;17.15;84.14;100739.84;5077036;28;20063;-60
2023/07/23 00:52:38;;;;;;;8.05;5.63;;;;;;;17.13;84.32;100730.09;5094692;28;20031;-60
2023/07/23 00:55:04;;;;;;;9.93;6.03;;;;;;;17.11;84.49;100726.59;5076599;28;20036;-60
2023/07/23 00:57:30;;;;;;;10.90;6.10;;;;;;;17.14;84.05;100730.09;5094508;28;20513;-60
2023/07/23 00:59:58;;;;;;;9.52;6.03;;;;;;;17.10;84.30;100723.03;5094641;28;20024;-60
2023/07/23 01:02:27;;;;;;;11.43;5.75;;;;;;;17.11;84.35;100721.25;5094562;28;20141;-59
2023/07/23 01:04:54;;;;;;;10.07;5.80;;;;;;;17.05;84.10;100716.03;5094459;28;20389;-59
2023/07/23 01:07:20;;;;;;;8.80;5.68;;;;;;;17.07;84.17;100709.75;5094786;28;20103;-60
2023/07/23 01:09:49;;;;;;;9.27;5.70;;;;;;;17.04;84.55;100709.78;5094545;28;20039;-62
2023/07/23 01:12:17;;;;;;;9.77;5.55;;;;;;;17.06;84.16;100707.13;5094348;28;20020;-60
2023/07/23 01:14:42;;;;;;;9.70;5.45;;;;;;;17.07;83.72;100696.41;5094225;28;20032;-60
2023/07/23 01:17:10;;;;;;;8.07;5.43;;;;;;;17.06;83.67;100691.97;5093261;28;20366;-60
2023/07/23 01:19:38;;;;;;;10.38;5.55;;;;;;;17.10;83.88;100687.47;5094300;28;20474;-59
2023/07/23 01:22:07;;;;;;;9.35;5.47;;;;;;;17.11;83.68;100684.75;5094092;28;20043;-60
2023/07/23 01:24:35;;;;;;;8.80;5.65;;;;;;;17.13;83.43;100679.38;5094127;28;20048;-60
2023/07/23 01:27:02;;;;;;;7.70;5.35;;;;;;;17.12;83.19;100673.16;5094161;28;20072;-60
2023/07/23 01:29:28;;;;;;;10.38;5.65;;;;;;;17.14;82.85;100671.34;5094119;28;20485;-59
2023/07/23 01:31:53;;;;;;;9.45;5.50;;;;;;;17.15;82.81;100665.09;5093795;28;20055;-60
2023/07/23 01:34:19;;;;;;;9.18;5.82;;;;;;;17.15;83.16;100666.88;5094227;28;20028;-60
2023/07/23 01:36:46;;;;;;;10.30;5.72;;;;;;;17.12;83.12;100666.94;5093984;28;20040;-60
2023/07/23 01:39:12;;;;;;;12.48;5.95;;;;;;;17.14;82.78;100663.34;5076282;28;20078;-60
2023/07/23 01:41:38;;;;;;;7.93;5.13;;;;;;;17.14;82.91;100658.00;5094101;28;20032;-61
2023/07/23 01:44:03;;;;;;;9.00;5.35;;;;;;;17.18;82.31;100654.38;5058829;28;20538;-61
2023/07/23 01:46:29;;;;;;;12.38;5.25;;;;;;;17.20;82.49;100655.19;5094063;28;20024;-60
2023/07/23 01:48:54;;;;;;;13.13;5.80;;;;;;;17.21;82.69;100645.41;5093829;28;20039;-60
2023/07/23 01:51:20;;;;;;;10.02;5.88;;;;;;;17.24;82.32;100640.00;5093743;28;20032;-60
2023/07/23 01:53:45;;;;;;;9.23;5.60;;;;;;;17.22;82.39;100639.16;5093922;28;20036;-60
2023/07/23 01:56:11;;;;;;;9.32;5.70;;;;;;;17.16;82.61;100640.16;5093667;28;20426;-60
2023/07/23 01:58:36;;;;;;;9.93;5.82;;;;;;;17.21;82.30;100627.56;5093646;28;20477;-60
2023/07/23 02:01:03;;;;;;;13.43;5.80;;;;;;;17.18;82.32;100630.34;5093669;28;20130;-60
2023/07/23 02:03:28;;;;;;;10.07;6.00;;;;;;;17.17;82.55;100630.34;5093517;28;20039;-60
2023/07/23 02:05:59;;;;;;;9.88;5.90;;;;;;;17.13;82.47;100618.88;5093790;28;20024;-59
2023/07/23 02:08:24;;;;;;;9.90;6.10;;;;;;;17.12;82.66;100611.75;5093495;28;20475;-60
2023/07/23 02:10:49;;;;;;;8.98;5.22;;;;;;;17.15;81.98;100611.69;5093497;28;20038;-60
2023/07/23 02:13:15;;;;;;;9.80;5.85;;;;;;;17.11;82.46;100610.00;5093595;28;20032;-60
2023/07/23 02:15:40;;;;;;;11.13;6.03;;;;;;;17.08;82.75;100601.16;5093287;28;20024;-60
2023/07/23 02:18:05;;;;;;;9.05;5.43;;;;;;;17.09;81.00;100603.81;5075567;28;20070;-59
2023/07/23 02:20:31;;;;;;;9.73;6.03;;;;;;;17.11;81.94;100601.09;5075260;28;20032;-61
2023/07/23 02:22:57;;;;;;;8.85;5.60;;;;;;;17.00;81.88;100588.88;5093221;28;20489;-60
2023/07/23 02:25:22;;;;;;;12.25;6.05;;;;;;;16.95;82.47;100588.06;5093252;28;20021;-60
2023/07/23 02:27:47;;;;;;;9.00;5.60;;;;;;;16.89;82.06;100589.97;5093316;28;20052;-60
2023/07/23 02:30:13;;;;;;;15.98;5.93;;;;;;;16.84;81.88;100578.53;5096987;28;20020;-61
2023/07/23 02:32:38;;;;;;;10.48;5.80;;;;;;;16.82;82.27;100583.88;5097118;28;20044;-60
2023/07/23 02:35:04;;;;;;;8.48;5.65;;;;;;;16.80;82.25;100580.34;5097421;28;20034;-61
2023/07/23 02:37:30;;;;;;;15.10;5.93;;;;;;;16.76;82.42;100584.88;5097296;28;20502;-59
2023/07/23 02:39:56;;;;;;;10.95;5.75;;;;;;;16.84;81.71;100573.19;5097602;28;20090;-60
2023/07/23 02:42:22;;;;;;;7.85;5.45;;;;;;;16.84;81.48;100575.84;5097449;28;20028;-60
2023/07/23 02:44:48;;;;;;;11.00;5.68;;;;;;;16.82;81.96;100570.53;5078976;28;20031;-60
2023/07/23 02:47:13;;;;;;;13.80;5.63;;;;;;;16.79;81.71;100575.94;5096998;28;20489;-60
2023/07/23 02:49:39;;;;;;;10.25;5.68;;;;;;;16.84;81.01;100571.38;5097144;28;20028;-60
2023/07/23 02:52:05;;;;;;;12.23;5.90;;;;;;;16.88;80.78;100575.75;5097102;28;20060;-59
2023/07/23 02:54:31;;;;;;;9.38;5.50;;;;;;;16.84;80.46;100558.03;5079347;28;20039;-61
2023/07/23 02:56:56;;;;;;;12.75;5.65;;;;;;;16.83;81.11;100566.06;5096991;28;20052;-61
2023/07/23 02:59:21;;;;;;;13.00;5.68;;;;;;;16.83;80.85;100566.06;5096961;28;20028;-60
2023/07/23 03:01:47;;;;;;;10.73;5.18;;;;;;;16.79;80.34;100557.25;5096813;28;20051;-60
2023/07/23 03:04:13;;;;;;;8.85;5.30;;;;;;;16.80;79.63;100553.69;5096863;28;20020;-60
2023/07/23 03:06:39;;;;;;;10.13;5.00;;;;;;;16.84;79.08;100554.50;5097048;28;20103;-59
2023/07/23 03:09:04;;;;;;;7.93;4.97;;;;;;;16.80;78.74;100561.69;5096747;28;20075;-60
2023/07/23 03:11:32;;;;;;;7.53;5.00;;;;;;;16.78;77.69;100555.47;5096789;28;20565;-60
2023/07/23 03:13:57;;;;;;;7.85;4.95;;;;;;;16.77;77.48;100548.38;5096491;28;20032;-63
2023/07/23 03:16:22;;;;;;;8.15;4.63;;;;;;;16.78;77.92;100552.81;5096608;28;20499;-60
2023/07/23 03:18:48;;;;;;;10.95;4.80;;;;;;;16.80;77.00;100548.34;5096508;28;20024;-60
2023/07/23 03:21:13;;;;;;;7.43;5.05;;;;;;;16.81;77.13;100558.09;5096782;28;20031;-60
2023/07/23 03:23:39;;;;;;;9.07;4.75;;;;;;;16.82;77.33;100550.97;5096511;28;20036;-61
2023/07/23 03:26:05;;;;;;;9.45;4.50;;;;;;;16.82;76.48;100543.84;5096579;28;20032;-59
2023/07/23 03:28:30;;;;;;;10.18;4.57;;;;;;;16.81;76.27;100544.75;5096488;28;20107;-60
2023/07/23 03:30:55;;;;;;;10.32;4.85;;;;;;;16.82;75.94;100556.31;5096168;28;20123;-59
2023/07/23 03:33:21;;;;;;;7.13;4.82;;;;;;;16.86;74.87;100552.66;5096233;28;20036;-60
2023/07/23 03:35:46;;;;;;;7.78;4.47;;;;;;;16.83;76.02;100544.72;5096506;28;20414;-61
2023/07/23 03:38:12;;;;;;;10.43;4.80;;;;;;;16.76;75.27;100534.16;5096264;28;20079;-61
2023/07/23 03:40:37;;;;;;;10.25;4.97;;;;;;;16.83;76.22;100545.63;5095308;28;20054;-60
2023/07/23 03:43:03;;;;;;;7.68;4.43;;;;;;;16.83;75.21;100544.72;5096065;28;20036;-60
2023/07/23 03:45:28;;;;;;;6.80;4.60;;;;;;;16.83;75.22;100542.94;5095880;28;20031;-59
2023/07/23 03:47:54;;;;;;;12.70;4.68;;;;;;;16.82;75.24;100545.63;5077725;28;20051;-60
2023/07/23 03:50:19;;;;;;;13.30;4.60;;;;;;;16.83;75.55;100544.72;5095978;28;20059;-60
2023/07/23 03:52:44;;;;;;;9.48;4.28;;;;;;;16.81;74.81;100542.09;5095862;28;20141;-59
2023/07/23 03:55:10;;;;;;;10.30;4.82;;;;;;;16.78;75.14;100542.13;5095799;28;20534;-60
2023/07/23 03:57:35;;;;;;;7.68;4.20;;;;;;;16.78;75.09;100542.13;5078017;28;20107;-59
2023/07/23 04:00:01;;;;;;;8.20;4.45;;;;;;;16.80;74.93;100539.47;5077860;28;20095;-59
2023/07/23 04:02:26;;;;;;;8.02;4.28;;;;;;;16.82;75.17;100537.63;5095446;28;20021;-60
2023/07/23 04:04:51;;;;;;;7.15;4.47;;;;;;;16.79;74.76;100543.91;5095508;28;20043;-60
2023/07/23 04:07:17;;;;;;;10.68;4.45;;;;;;;16.80;74.45;100542.13;5095134;28;20072;-59
2023/07/23 04:09:42;;;;;;;8.80;4.25;;;;;;;16.74;75.15;100538.69;5095034;28;20028;-60
2023/07/23 04:12:10;;;;;;;6.35;4.25;;;;;;;16.74;75.18;100545.78;5095136;28;20024;-59
2023/07/23 04:14:42;;;;;;;12.25;4.55;;;;;;;16.74;74.79;100544.00;5094815;28;20024;-60
2023/07/23 04:17:07;;;;;;;6.95;4.00;;;;;;;16.75;74.58;100540.44;5095112;28;20116;-60
2023/07/23 04:19:33;;;;;;;7.57;4.25;;;;;;;16.77;74.52;100543.06;5094776;28;20051;-60
2023/07/23 04:21:58;;;;;;;7.93;4.25;;;;;;;16.75;74.28;100545.75;5095000;28;20389;-60
2023/07/23 04:24:23;;;;;;;7.88;4.15;;;;;;;16.78;74.32;100539.47;5094800;28;20117;-59
2023/07/23 04:26:49;;;;;;;6.45;4.13;;;;;;;16.78;74.26;100542.13;5094876;28;20024;-59
2023/07/23 04:29:14;;;;;;;11.70;4.20;;;;;;;16.78;74.31;100544.81;5094647;28;20055;-60
2023/07/23 04:31:40;;;;;;;10.23;4.35;;;;;;;16.80;74.33;100550.13;5094607;28;20048;-60
2023/07/23 04:34:05;;;;;;;10.88;3.97;;;;;;;16.83;74.16;100545.63;5094536;28;20485;-60
2023/07/23 04:36:30;;;;;;;7.85;4.45;;;;;;;16.85;73.97;100545.56;5094560;28;20031;-59
2023/07/23 04:38:56;;;;;;;5.93;3.95;;;;;;;16.85;74.28;100540.25;5094563;28;20059;-60
2023/07/23 04:41:21;;;;;;;9.95;4.40;;;;;;;16.87;74.07;100547.28;5094491;28;20034;-60
2023/07/23 04:43:47;;;;;;;8.10;4.22;;;;;;;16.91;73.14;100545.44;5094508;28;20383;-59
2023/07/23 04:46:12;;;;;;;7.30;4.25;;;;;;;16.92;73.12;100547.22;5094142;28;20023;-60
2023/07/23 04:48:38;;;;;;;6.55;3.90;;;;;;;16.96;72.99;100543.59;5094412;28;20028;-60
2023/07/23 04:51:09;;;;;;;8.13;3.92;;;;;;;16.95;72.36;100548.00;5094286;28;20054;-59
2023/07/23 04:53:35;;;;;;;6.57;3.70;;;;;;;16.97;72.17;100542.66;5094596;28;20035;-60
2023/07/23 04:56:03;;;;;;;6.90;4.00;;;;;;;16.96;72.54;100536.44;5094464;28;20032;-60
2023/07/23 04:58:28;;;;;;;10.00;4.13;;;;;;;16.99;72.53;100536.38;5094111;28;20470;-60
2023/07/23 05:00:54;;;;;;;6.60;3.85;;;;;;;16.98;72.61;100542.63;5094137;28;20056;-61
2023/07/23 05:03:20;;;;;;;9.80;3.90;;;;;;;17.03;72.34;100542.53;5093846;28;20546;-61
2023/07/23 05:05:50;;;;;;;6.93;3.70;;;;;;;17.06;72.19;100544.25;5094117;28;20055;-60
2023/07/23 05:08:17;;;;;;;8.73;4.13;;;;;;;17.05;72.54;100534.50;5094326;28;20066;-61
2023/07/23 05:10:42;;;;;;;9.07;4.55;;;;;;;17.05;72.17;100534.50;5094106;28;20034;-60
2023/07/23 05:13:08;;;;;;;11.90;3.67;;;;;;;17.06;72.29;100534.47;5093971;28;20028;-58
2023/07/23 05:15:33;;;;;;;8.38;4.00;;;;;;;17.05;73.01;100537.19;5075628;28;20469;-58
2023/07/23 05:17:58;;;;;;;8.02;3.95;;;;;;;17.03;72.92;100538.06;5075165;28;20028;-58
2023/07/23 05:20:24;;;;;;;9.98;4.20;;;;;;;17.03;73.10;100550.53;5093880;28;20435;-58
2023/07/23 05:22:50;;;;;;;6.40;3.78;;;;;;;17.03;73.24;100548.75;5093458;28;20032;-57
2023/07/23 05:25:16;;;;;;;8.00;4.10;;;;;;;17.02;73.38;100544.31;5093448;28;20024;-59
2023/07/23 05:27:41;;;;;;;6.03;3.88;;;;;;;17.01;73.76;100537.22;5093916;28;20047;-60
2023/07/23 05:30:07;;;;;;;5.85;3.90;;;;;;;17.05;73.75;100547.84;5093499;28;20050;-59
2023/07/23 05:32:32;;;;;;;7.40;4.03;;;;;;;17.05;73.78;100540.72;5092996;28;20088;-60
2023/07/23 05:34:58;;;;;;;7.90;4.10;;;;;;;17.04;73.32;100538.94;5093354;28;20060;-60
2023/07/23 05:37:24;;;;;;;10.43;3.90;;;;;;;17.01;74.05;100553.25;5093499;28;20462;-60
2023/07/23 05:39:53;;;;;;;5.75;3.83;;;;;;;16.98;74.78;100536.41;5093457;28;20016;-60
2023/07/23 05:42:19;;;;;;;9.32;4.07;;;;;;;16.94;75.06;100540.06;5093498;28;20132;-61
2023/07/23 05:44:44;;;;;;;6.97;3.60;;;;;;;16.93;74.66;100533.84;5093152;28;20039;-60
2023/07/23 05:47:09;;;;;;;7.38;3.75;;;;;;;16.91;74.19;100548.09;5093202;28;20032;-58
2023/07/23 05:49:35;;;;;;;7.40;4.07;;;;;;;16.92;74.43;100534.75;5092889;28;20412;-57
2023/07/23 05:52:00;;;;;;;6.28;3.95;;;;;;;16.92;75.01;100539.22;5092974;28;20024;-58
2023/07/23 05:54:26;;;;;;;7.07;4.00;;;;;;;16.87;75.36;100535.72;5093372;28;20408;-57
2023/07/23 05:56:52;;;;;;;12.05;3.80;;;;;;;16.86;75.61;100534.84;5092886;28;20035;-59
2023/07/23 05:59:17;;;;;;;7.40;3.90;;;;;;;16.85;75.11;100534.91;5093057;28;20032;-60
2023/07/23 06:01:43;;;;;;;7.47;4.00;;;;;;;16.81;75.50;100544.75;5092901;28;20051;-60
2023/07/23 06:04:08;;;;;;;6.70;3.90;;;;;;;16.82;75.20;100540.28;5092473;28;20035;-60
2023/07/23 06:06:34;;;;;;;12.80;3.97;;;;;;;16.80;75.41;100535.00;5092900;28;20374;-60
2023/07/23 06:08:59;;;;;;;9.55;3.78;;;;;;;16.78;75.87;100543.00;5093113;28;20103;-61
2023/07/23 06:11:25;;;;;;;8.07;4.22;;;;;;;16.81;76.07;100531.41;5074550;28;20031;-60
2023/07/23 06:13:50;;;;;;;7.45;4.10;;;;;;;16.80;76.48;100536.78;5092993;28;20408;-60
2023/07/23 06:16:15;;;;;;;8.32;3.80;;;;;;;16.81;76.82;100547.41;5092704;28;20062;-61
2023/07/23 06:18:41;;;;;;;10.13;4.18;;;;;;;16.83;77.68;100542.03;5092555;28;20066;-60
2023/07/23 06:21:06;;;;;;;9.23;4.40;;;;;;;16.82;78.09;100537.63;5092808;28;20020;-60
2023/07/23 06:23:33;;;;;;;7.60;4.10;;;;;;;16.82;77.74;100546.50;5092640;28;20041;-60
2023/07/23 06:25:59;;;;;;;8.85;4.03;;;;;;;16.74;78.21;100549.34;5092912;28;20386;-61
2023/07/23 06:28:24;;;;;;;8.48;4.13;;;;;;;16.68;79.85;100548.53;5092805;28;20478;-61
2023/07/23 06:30:50;;;;;;;6.65;4.50;;;;;;;16.61;79.79;100557.56;5092812;28;20032;-61
2023/07/23 06:33:16;;;;;;;9.57;4.20;;;;;;;16.51;80.25;100548.84;5092073;28;20127;-60
2023/07/23 06:35:43;;;;;;;8.82;4.25;;;;;;;16.45;80.52;100548.97;5092639;28;20051;-60
2023/07/23 06:38:08;;;;;;;7.10;4.15;;;;;;;16.45;81.75;100549.84;5092876;28;20020;-60
2023/07/23 06:40:33;;;;;;;8.13;4.03;;;;;;;16.47;82.29;100557.81;5092586;28;20043;-60
2023/07/23 06:42:59;;;;;;;7.22;4.30;;;;;;;16.47;81.71;100553.34;5092601;28;20038;-60
2023/07/23 06:45:24;;;;;;;7.68;3.95;;;;;;;16.49;81.03;100554.22;5074298;28;20055;-61
2023/07/23 06:47:49;;;;;;;6.88;4.28;;;;;;;16.48;81.05;100556.91;5092533;28;20486;-61
2023/07/23 06:50:17;;;;;;;6.10;4.13;;;;;;;16.58;81.09;100566.50;5074402;28;20035;-61
2023/07/23 06:52:43;;;;;;;8.68;4.10;;;;;;;16.58;79.96;100576.31;5092508;28;20044;-61
2023/07/23 06:55:08;;;;;;;8.50;4.03;;;;;;;16.60;81.14;100571.81;5092620;28;20053;-60
2023/07/23 06:57:34;;;;;;;8.98;4.40;;;;;;;16.63;81.24;100566.44;5092890;28;20028;-60
2023/07/23 06:59:59;;;;;;;6.93;4.13;;;;;;;16.56;80.89;100578.09;5092427;28;20339;-60
2023/07/23 07:02:25;;;;;;;6.72;4.53;;;;;;;16.45;83.35;100580.97;5092537;28;20024;-60
2023/07/23 07:04:51;;;;;;;7.55;4.30;;;;;;;16.44;84.15;100571.19;5092387;28;20020;-61
2023/07/23 07:07:16;;;;;;;9.15;4.15;;;;;;;16.36;85.47;100575.78;5092252;28;20101;-61
2023/07/23 07:09:42;;;;;;;9.23;4.70;;;;;;;16.27;85.97;100577.72;5092500;28;20477;-60
2023/07/23 07:12:08;;;;;;;6.53;4.43;;;;;;;16.18;87.17;100574.31;5092213;28;20132;-60
2023/07/23 07:14:33;;;;;;;8.73;4.60;;;;;;;16.10;87.63;100569.13;5074783;28;20050;-60
2023/07/23 07:16:59;;;;;;;7.95;5.00;;;;;;;16.05;89.08;100581.63;5096365;28;20444;-61
2023/07/23 07:19:24;;;;;;;7.22;4.55;;;;;;;16.01;89.99;100571.91;5096259;28;20028;-61
2023/07/23 07:21:50;;;;;;;9.35;5.20;;;;;;;15.93;91.47;100579.16;5095890;28;20489;-61
2023/07/23 07:24:17;;;;;;;9.90;4.78;;;;;;;15.86;92.70;100574.84;5096342;28;20036;-61
2023/07/23 07:26:42;;;;;;;9.20;5.18;;;;;;;15.87;92.96;100571.25;5096138;28;20103;-60
2023/07/23 07:29:08;;;;;;;7.00;5.10;;;;;;;15.87;93.48;100574.81;5095772;28;20135;-61
2023/07/23 07:31:33;;;;;;;10.70;5.13;;;;;;;15.84;93.04;100569.50;5095547;28;20020;-59
2023/07/23 07:33:59;;;;;;;10.02;5.35;;;;;;;15.84;93.25;100566.84;5095516;28;20035;-61
2023/07/23 07:36:24;;;;;;;10.38;4.70;;;;;;;15.83;93.50;100575.75;5077723;28;20521;-60
2023/07/23 07:38:50;;;;;;;8.77;5.20;;;;;;;15.87;93.31;100565.94;5095714;28;20089;-61
2023/07/23 07:41:15;;;;;;;7.60;5.20;;;;;;;15.89;93.86;100574.81;5096029;28;20085;-61
2023/07/23 07:43:41;;;;;;;8.27;5.40;;;;;;;15.85;94.08;100573.09;5095799;28;20113;-61
2023/07/23 07:46:08;;;;;;;10.43;5.63;;;;;;;15.88;94.17;100573.00;5095387;28;20029;-60
2023/07/23 07:48:35;;;;;;;10.15;5.35;;;;;;;15.84;94.65;100572.19;5095664;28;20024;-60
2023/07/23 07:51:04;;;;;;;8.27;5.38;;;;;;;15.89;94.15;100578.34;5095483;28;20085;-61
2023/07/23 07:53:31;;;;;;;10.45;5.72;;;;;;;15.98;94.24;100577.31;5095674;28;20032;-61
2023/07/23 07:55:57;;;;;;;9.00;5.10;;;;;;;16.01;93.46;100578.13;5095343;28;20123;-61
2023/07/23 07:58:27;;;;;;;12.18;6.00;;;;;;;16.01;93.47;100577.25;5095388;28;20138;-60
2023/07/23 08:00:54;;;;;;;10.82;5.50;;;;;;;16.11;94.11;100568.22;5095469;28;20035;-61
2023/07/23 08:03:24;;;;;;;10.68;5.43;;;;;;;16.19;93.32;100565.44;5095432;28;20059;-60
2023/07/23 08:05:50;;;;;;;8.35;5.50;;;;;;;16.18;93.05;100572.53;5095087;28;20016;-61
2023/07/23 08:08:19;;;;;;;9.52;5.70;;;;;;;16.14;93.59;100576.13;5077169;28;20039;-61
2023/07/23 08:10:45;;;;;;;14.00;5.88;;;;;;;16.13;94.87;100574.38;5095006;28;20530;-60
2023/07/23 08:13:14;;;;;;;11.25;5.88;;;;;;;16.18;95.67;100576.97;5094960;28;20056;-61
2023/07/23 08:15:40;;;;;;;8.43;5.25;;;;;;;16.22;96.17;100568.03;5094875;28;20505;-61
2023/07/23 08:18:06;;;;;;;10.15;5.93;;;;;;;16.25;97.47;100570.66;5094877;28;20105;-63
2023/07/23 08:20:34;;;;;;;8.77;5.57;;;;;;;16.23;96.71;100578.69;5095227;28;20039;-61
2023/07/23 08:23:01;;;;;;;10.57;5.47;;;;;;;16.19;97.63;100573.44;5094836;28;20024;-60
2023/07/23 08:25:29;;;;;;;11.57;5.10;;;;;;;16.22;97.05;100579.56;5094873;28;20036;-61
2023/07/23 08:28:00;;;;;;;9.27;4.70;;;;;;;16.30;97.01;100573.22;5094415;28;20016;-61
2023/07/23 08:30:27;;;;;;;7.85;4.50;;;;;;;16.31;97.64;100580.31;5095103;28;20081;-60
2023/07/23 08:32:55;;;;;;;10.02;5.00;;;;;;;16.33;97.66;100579.41;5094219;28;20062;-61
2023/07/23 08:35:22;;;;;;;9.43;4.70;;;;;;;16.31;98.36;100565.19;5094908;28;20043;-61
2023/07/23 08:37:47;;;;;;;7.68;4.70;;;;;;;16.34;98.09;100562.47;5094807;28;20028;-62
2023/07/23 08:40:13;;;;;;;7.97;4.30;;;;;;;16.41;97.38;100566.81;5094964;28;20358;-60
2023/07/23 08:42:54;;;;;;;5.85;3.72;;;;;;;16.44;96.83;100563.19;5094665;28;20127;-60
2023/07/23 08:45:33;;;;;;;6.05;4.13;;;;;;;16.44;97.82;100571.19;5094331;28;20056;-61
2023/07/23 08:48:17;;;;;;;7.20;4.20;;;;;;;16.48;97.48;100572.91;5094399;28;20085;-60
2023/07/23 08:50:47;;;;;;;6.05;3.85;;;;;;;16.49;97.81;100562.22;5094634;28;20097;-60
2023/07/23 08:53:14;;;;;;;5.57;3.50;;;;;;;16.53;97.32;100579.94;5094519;28;20032;-60
2023/07/23 08:55:46;;;;;;;7.32;3.97;;;;;;;16.47;97.53;100569.34;5094286;28;20104;-64
2023/07/23 08:58:20;;;;;;;6.63;3.60;;;;;;;16.49;98.76;100574.69;5094310;28;20028;-60
2023/07/23 09:00:47;;;;;;;5.75;3.85;;;;;;;16.52;98.04;100577.28;5075857;28;20358;-61
2023/07/23 09:03:17;;;;;;;7.25;3.70;;;;;;;16.55;98.07;100571.91;5094259;28;20040;-61
2023/07/23 09:05:43;;;;;;;5.88;3.55;;;;;;;16.61;99.10;100570.88;5076608;28;20028;-61
2023/07/23 09:08:08;;;;;;;5.25;3.65;;;;;;;16.69;99.91;100577.84;5073608;28;20036;-59
2023/07/23 09:10:34;;;;;;;4.80;3.63;;;;;;;16.62;100.00;100586.00;5073564;28;20052;-60
2023/07/23 09:13:09;;;;;;;5.25;3.60;;;;;;;16.55;100.00;100584.34;5073588;28;20474;-60
2023/07/23 09:15:34;;;;;;;5.40;3.45;;;;;;;16.55;100.00;100582.56;5073306;28;20028;-60
2023/07/23 09:17:59;;;;;;;6.18;3.65;;;;;;;16.53;100.00;100584.41;5073578;28;20047;-60
2023/07/23 09:20:25;;;;;;;4.78;3.47;;;;;;;16.62;100.00;100584.22;5073342;28;20028;-59
2023/07/23 09:22:50;;;;;;;4.85;3.60;;;;;;;16.72;100.00;100580.50;5073286;28;20101;-59
2023/07/23 09:25:16;;;;;;;4.30;3.10;;;;;;;16.76;100.00;100581.31;5073555;28;20031;-59
2023/07/23 09:27:42;;;;;;;4.40;3.22;;;;;;;16.77;100.00;100581.28;5073175;28;20029;-59
2023/07/23 09:30:16;;;;;;;4.38;3.10;;;;;;;16.75;100.00;100582.25;5073237;28;20063;-60
2023/07/23 09:32:41;;;;;;;4.22;3.22;;;;;;;16.69;100.00;100592.97;5072912;28;20059;-60
2023/07/23 09:35:07;;;;;;;5.20;3.50;;;;;;;16.71;100.00;100586.72;5073128;28;20111;-61
2023/07/23 09:37:33;;;;;;;6.28;3.35;;;;;;;16.72;100.00;100591.16;5072859;28;20074;-61
2023/07/23 09:39:58;;;;;;;4.85;3.05;;;;;;;16.75;100.00;100590.25;5072497;28;20500;-60
2023/07/23 09:42:25;;;;;;;5.60;3.42;;;;;;;16.70;100.00;100594.72;5073034;28;20111;-60
2023/07/23 09:44:51;;;;;;;5.35;3.35;;;;;;;16.55;100.00;100579.91;5072748;28;20327;-61
2023/07/23 09:47:23;;;;;;;4.90;3.30;;;;;;;16.58;100.00;100594.97;5073001;28;20056;-61
2023/07/23 09:49:52;;;;;;;5.70;3.53;;;;;;;16.49;100.00;100583.56;5072820;28;20458;-60
2023/07/23 09:52:21;;;;;;;4.35;3.40;;;;;;;16.59;100.00;100586.06;5055234;28;20029;-62
2023/07/23 09:54:47;;;;;;;5.72;3.65;;;;;;;16.64;100.00;100590.41;5072793;28;20069;-60
2023/07/23 09:57:13;;;;;;;4.78;3.45;;;;;;;16.68;100.00;100597.44;5072863;28;20031;-60
2023/07/23 09:59:39;;;;;;;5.75;3.63;;;;;;;16.67;100.00;100593.00;5068503;28;20104;-61
2023/07/23 10:02:08;;;;;;;5.43;3.60;;;;;;;16.65;100.00;100609.94;5093007;28;20028;-61
2023/07/23 10:04:35;;;;;;;5.05;3.33;;;;;;;16.52;100.00;100580.81;5092815;28;20138;-61
2023/07/23 10:07:02;;;;;;;5.45;3.42;;;;;;;16.63;100.00;100587.75;5092997;28;20020;-60
2023/07/23 10:09:28;;;;;;;5.25;3.20;;;;;;;16.70;100.00;100597.41;5092871;28;20028;-60
2023/07/23 10:11:54;;;;;;;5.35;3.40;;;;;;;16.65;100.00;100600.16;5092733;28;20030;-60
2023/07/23 10:14:21;;;;;;;5.75;3.30;;;;;;;16.70;100.00;100595.63;5093012;28;20111;-60
2023/07/23 10:16:49;;;;;;;4.80;3.05;;;;;;;16.66;100.00;100601.94;5092905;28;20053;-60
2023/07/23 10:19:15;;;;;;;5.72;3.20;;;;;;;16.62;100.00;100602.03;5092906;28;20103;-61
2023/07/23 10:21:47;;;;;;;5.97;3.30;;;;;;;16.60;100.00;100598.47;5092723;28;20028;-60
2023/07/23 10:24:12;;;;;;;3.80;2.78;;;;;;;16.62;100.00;100605.56;5092990;28;20028;-60
2023/07/23 10:26:42;;;;;;;4.43;3.13;;;;;;;16.62;100.00;100612.69;5092526;28;20493;-61
2023/07/23 10:29:18;;;;;;;3.72;2.90;;;;;;;16.65;100.00;100608.16;5074316;28;20024;-61
2023/07/23 10:31:45;;;;;;;3.72;2.83;;;;;;;16.66;100.00;100601.03;5092573;28;20511;-61
2023/07/23 10:34:25;;;;;;;4.82;3.05;;;;;;;16.66;100.00;100617.94;5074523;28;20055;-60
2023/07/23 10:37:21;;;;;;;4.28;3.10;;;;;;;16.69;100.00;100607.19;5092400;28;20028;-61
2023/07/23 10:39:52;;;;;;;4.15;3.00;;;;;;;16.69;100.00;100620.53;5071779;28;20040;-61
2023/07/23 10:42:30;;;;;;;3.90;3.00;;;;;;;16.72;100.00;100607.19;5092890;28;20031;-61
2023/07/23 10:45:21;;;;;;;3.90;2.97;;;;;;;16.73;100.00;100608.06;5092339;28;20111;-60
2023/07/23 10:47:55;;;;;;;4.80;3.17;;;;;;;16.71;100.00;100615.19;5080947;28;20130;-60
2023/07/23 10:50:21;;;;;;;5.22;3.35;;;;;;;16.78;100.00;100608.84;5094742;28;20032;-61
2023/07/23 10:52:52;;;;;;;4.60;3.22;;;;;;;16.80;100.00;100606.16;5096622;28;20028;-61
2023/07/23 10:55:41;;;;;;;4.30;3.17;;;;;;;16.83;100.00;100612.34;5096747;28;20477;-62
2023/07/23 10:58:11;;;;;;;5.03;3.30;;;;;;;16.87;100.00;100600.66;5096515;28;20043;-64
2023/07/23 11:00:58;;;;;;;3.90;3.03;;;;;;;16.94;100.00;100615.66;5096375;28;20070;-61
2023/07/23 11:03:25;;;;;;;4.15;3.08;;;;;;;16.96;100.00;100597.84;5058021;28;20108;-61
2023/07/23 11:05:52;;;;;;;5.93;3.50;;;;;;;17.01;100.00;100593.28;5075912;28;20077;-60
2023/07/23 11:08:26;;;;;;;5.32;3.70;;;;;;;17.07;100.00;100604.75;5058415;28;20382;-61
2023/07/23 11:11:00;;;;;;;6.07;3.60;;;;;;;17.09;100.00;100600.28;5081432;28;20032;-61
2023/07/23 11:13:28;;;;;;;5.80;3.95;;;;;;;17.13;100.00;100610.88;5096220;28;20059;-62
2023/07/23 11:15:54;;;;;;;7.72;3.63;;;;;;;17.23;100.00;100622.22;5096248;28;20043;-61
2023/07/23 11:18:20;;;;;;;4.55;3.55;;;;;;;17.28;100.00;100604.31;5095844;28;20378;-59
2023/07/23 11:20:50;;;;;;;6.25;3.60;;;;;;;17.40;100.00;100596.06;5095640;28;20031;-61